CW3112 Weather Reports


Display with metric or nautical units.
time (UTC)temp
F
wind
direction
speed
MPH
gust
MPH
rain 1hr
in
rain 24hr
in
rain mn
in
humidity
%
barometer
mb
20190325040204 54 248 0.0 0.0 0.00 0.00 0.00 71 1016.3
20190325034204 54 248 0.0 0.0 0.00 0.00 0.00 70 1016.4
20190325033203 54 248 0.0 0.0 0.00 0.00 0.00 70 1016.5
20190325031203 55 248 0.0 0.0 0.00 0.00 0.00 68 1016.5
20190325030203 55 248 0.0 0.0 0.00 0.00 0.00 68 1016.6
20190325024204 56 248 0.0 0.0 0.00 0.00 0.00 65 1016.7
20190325023204 56 248 0.0 0.0 0.00 0.00 0.00 64 1016.6
20190325021204 57 248 0.0 0.0 0.00 0.00 0.00 61 1016.5
20190325020204 58 248 0.0 0.0 0.00 0.00 0.00 61 1016.5
20190325014203 59 248 0.0 0.0 0.00 0.00 0.00 58 1016.5
20190325013204 59 248 0.0 0.0 0.00 0.00 0.00 57 1016.5
20190325011204 61 248 0.0 0.0 0.00 0.00 0.00 52 1016.3
20190325010204 61 248 0.0 0.0 0.00 0.00 0.00 50 1016.2
20190325004204 63 248 0.0 0.0 0.00 0.00 0.00 48 1016.0
20190325003204 64 248 0.0 0.0 0.00 0.00 0.00 47 1016.0
20190325001203 66 248 0.0 0.0 0.00 0.00 0.00 43 1015.9
20190325000204 67 248 0.0 0.0 0.00 0.00 0.00 43 1015.9
20190324234203 69 248 0.0 0.0 0.00 0.00 0.00 39 1016.0
20190324233204 71 248 0.0 0.0 0.00 0.00 0.00 38 1016.0
20190324231204 72 204 0.0 0.0 0.00 0.00 0.00 34 1016.1
20190324230203 73 203 0.0 2.0 0.00 0.00 0.00 31 1016.2
20190324224203 74 202 0.0 3.0 0.00 0.00 0.00 29 1016.4
20190324223203 75 194 1.0 7.0 0.00 0.00 0.00 29 1016.3
20190324221203 76 187 0.0 5.0 0.00 0.00 0.00 28 1016.2
20190324220203 76 231 0.0 5.0 0.00 0.00 0.00 28 1016.4
20190324214204 77 187 0.0 3.0 0.00 0.00 0.00 26 1016.6
20190324213204 76 88 0.0 6.0 0.00 0.00 0.00 26 1016.7
20190324211205 76 123 0.0 7.0 0.00 0.00 0.00 27 1016.9
20190324210204 75 191 0.0 6.0 0.00 0.00 0.00 28 1017.0
20190324204203 75 90 0.0 3.0 0.00 0.00 0.00 26 1017.1
20190324203204 76 165 0.0 5.0 0.00 0.00 0.00 27 1017.3
20190324201205 77 182 0.0 5.0 0.00 0.00 0.00 24 1017.6
20190324200203 76 241 1.0 6.0 0.00 0.00 0.00 26 1017.6
20190324194204 78 150 0.0 3.0 0.00 0.00 0.00 25 1017.9
20190324193203 78 202 1.0 7.0 0.00 0.00 0.00 25 1018.0
20190324191203 78 39 0.0 3.0 0.00 0.00 0.00 26 1018.3
20190324190204 77 1 1.0 5.0 0.00 0.00 0.00 26 1018.6
20190324184203 77 226 0.0 5.0 0.00 0.00 0.00 26 1018.9
20190324183204 76 181 0.0 5.0 0.00 0.00 0.00 28 1019.2
20190324181203 76 137 0.0 5.0 0.00 0.00 0.00 27 1019.7
20190324180203 76 182 0.0 6.0 0.00 0.00 0.00 26 1019.9
20190324174204 76 173 3.0 7.0 0.00 0.00 0.00 28 1020.3
20190324173203 75 125 0.0 5.0 0.00 0.00 0.00 34 1020.3
20190324171203 74 221 0.0 3.0 0.00 0.00 0.00 34 1020.4
20190324170203 74 73 0.0 6.0 0.00 0.00 0.00 34 1020.6
20190324164203 73 222 1.0 3.0 0.00 0.00 0.00 33 1020.9
20190324163205 72 161 1.0 14.0 0.00 0.00 0.00 32 1021.1
20190324161203 70 185 0.0 1.0 0.00 0.00 0.00 39 1021.4
20190324160203 69 187 0.0 3.0 0.00 0.00 0.00 41 1021.4
20190324154204 68 158 0.0 3.0 0.00 0.00 0.00 44 1021.6
20190324153204 67 171 0.0 5.0 0.00 0.00 0.00 45 1021.7
20190324151204 65 154 0.0 3.0 0.00 0.00 0.00 46 1021.6
20190324150204 63 185 0.0 6.0 0.00 0.00 0.00 51 1021.6
20190324144203 58 187 0.0 3.0 0.00 0.00 0.00 62 1021.7
20190324143203 56 268 0.0 0.0 0.00 0.00 0.00 67 1021.9
20190324141204 51 268 0.0 0.0 0.00 0.00 0.00 77 1022.2
20190324140205 49 267 0.0 1.0 0.00 0.00 0.00 80 1022.1
20190324134203 45 267 0.0 0.0 0.00 0.00 0.00 90 1022.0
20190324133204 43 267 0.0 0.0 0.00 0.00 0.00 92 1021.8
20190324131203 41 267 0.0 0.0 0.00 0.00 0.00 92 1021.6
20190324130204 40 229 0.0 0.0 0.00 0.00 0.00 91 1021.6
20190324124204 39 229 0.0 0.0 0.00 0.00 0.00 90 1021.5
20190324123203 39 229 0.0 0.0 0.00 0.00 0.00 90 1021.5
20190324121203 39 229 0.0 0.0 0.00 0.00 0.00 88 1021.4
20190324120203 39 229 0.0 0.0 0.00 0.00 0.00 87 1021.3
20190324114204 39 229 0.0 0.0 0.00 0.00 0.00 86 1021.0
20190324113203 39 229 0.0 0.0 0.00 0.00 0.00 85 1020.8
20190324111204 39 229 0.0 0.0 0.00 0.00 0.00 84 1020.5
20190324110204 39 229 0.0 0.0 0.00 0.00 0.00 83 1020.4
20190324104203 40 229 0.0 0.0 0.00 0.00 0.00 83 1020.2
20190324103204 40 229 0.0 0.0 0.00 0.00 0.00 81 1020.3
20190324101204 40 229 0.0 0.0 0.00 0.00 0.00 81 1020.4
20190324100203 40 229 0.0 0.0 0.00 0.00 0.00 81 1020.3
20190324094204 40 229 0.0 0.0 0.00 0.00 0.00 80 1020.0
20190324093204 41 229 0.0 0.0 0.00 0.00 0.00 80 1020.0
20190324091204 41 229 0.0 0.0 0.00 0.00 0.00 77 1019.9
20190324090205 41 229 0.0 0.0 0.00 0.00 0.00 77 1019.9
20190324084203 42 229 0.0 0.0 0.00 0.00 0.00 77 1019.9
20190324083204 42 229 0.0 0.0 0.00 0.00 0.00 77 1020.0
20190324081204 42 229 0.0 0.0 0.00 0.00 0.00 76 1020.2
20190324080204 42 229 0.0 0.0 0.00 0.00 0.00 74 1020.2
20190324074203 42 229 0.0 0.0 0.00 0.00 0.00 74 1020.4
20190324073204 42 229 0.0 0.0 0.00 0.00 0.00 74 1020.4
20190324071203 43 229 0.0 0.0 0.00 0.00 0.00 74 1020.4
20190324070204 43 229 0.0 0.0 0.00 0.00 0.00 73 1020.4
20190324064203 43 229 0.0 0.0 0.00 0.00 0.00 74 1020.4
20190324063204 44 229 0.0 0.0 0.00 0.00 0.00 72 1020.4
20190324061204 44 229 0.0 0.0 0.00 0.00 0.00 71 1020.5
20190324060203 45 229 0.0 0.0 0.00 0.00 0.00 71 1020.5
20190324054203 45 229 0.0 0.0 0.00 0.00 0.00 71 1020.5
20190324053204 45 229 0.0 0.0 0.00 0.00 0.00 70 1020.6
20190324051203 46 229 0.0 0.0 0.00 0.00 0.00 67 1020.7
20190324050206 46 229 0.0 0.0 0.00 0.00 0.00 67 1020.7
20190324044203 47 229 0.0 0.0 0.00 0.00 0.00 67 1020.7
20190324043204 47 229 0.0 0.0 0.00 0.00 0.00 67 1020.6
20190324041203 48 229 0.0 0.0 0.00 0.00 0.00 65 1020.6